This is the latest recevied weather packets stored in our database for station/object K4IR. If no packets are shown the sender has not sent any weather packets the latest 10 day(s).
| Time | Temp. | Humidity | Pressure | Rain* | Wind** | Luminosity | Snow |
|---|---|---|---|---|---|---|---|
| 1787515814 | 27.22° C | 97% | 1013.1 hPa | 0 mm | - | 105 W/m² | - |
| 1787515210 | 27.22° C | 97% | 1013.1 hPa | 0 mm | - | 137 W/m² | - |
| 1787514608 | 27.78° C | 97% | 1013 hPa | 0 mm | - | 155 W/m² | - |
| 1787514002 | 27.78° C | 98% | 1013.1 hPa | 0 mm | - | 536 W/m² | - |
| 1787513400 | 26.67° C | 97% | 1013.5 hPa | 1.78 mm | - | 145 W/m² | - |
| 1787512798 | 25.56° C | 98% | 1013.6 hPa | 3.05 mm | - | 292 W/m² | - |
| 1787512195 | 25.56° C | 97% | 1013.7 hPa | 4.83 mm | - | 323 W/m² | - |
| 1787511596 | 24.44° C | 97% | 1013.9 hPa | 10.16 mm | - | 99 W/m² | - |
| 1787510995 | 23.89° C | 96% | 1014.3 hPa | 36.58 mm | - | 37 W/m² | - |
| 1787510391 | 23.89° C | 94% | 1014 hPa | 17.53 mm | - | 77 W/m² | - |
| 1787509788 | 25.56° C | 95% | 1013.7 hPa | 11.94 mm | - | 96 W/m² | - |
| 1787509187 | 26.67° C | 92% | 1013.7 hPa | 5.33 mm | - | 91 W/m² | - |
| 1787508583 | 28.33° C | 90% | 1013.9 hPa | 5.33 mm | - | 149 W/m² | - |
| 1787507980 | 30.56° C | 79% | 1013.8 hPa | 1.78 mm | - | 100 W/m² | - |
| 1787507379 | 30.56° C | 79% | 1013.6 hPa | 0 mm | - | 175 W/m² | - |
| 1787506776 | 30° C | 80% | 1013.7 hPa | 0 mm | - | 119 W/m² | - |
| 1787506173 | 30.56° C | 74% | 1014 hPa | 0 mm | - | 111 W/m² | - |
| 1787505569 | 31.11° C | 71% | 1014.1 hPa | 0 mm | - | 287 W/m² | - |
| 1787504970 | 31.11° C | 72% | 1014.2 hPa | 0 mm | - | 823 W/m² | - |
| 1787504367 | 30.56° C | 76% | 1014.2 hPa | 0 mm | - | 236 W/m² | - |
| 1787503762 | 30.56° C | 75% | 1014.3 hPa | 0 mm | - | 220 W/m² | - |
| 1787503160 | 30.56° C | 74% | 1014.6 hPa | 0 mm | - | 216 W/m² | - |
| 1787502557 | 30° C | 75% | 1014.6 hPa | 0 mm | - | 761 W/m² | - |
| 1787501952 | 30° C | 77% | 1014.8 hPa | 0 mm | - | 624 W/m² | - |
| 1787501348 | 30.56° C | 75% | 1015 hPa | 0 mm | - | 688 W/m² | - |
* Rain latest hour (hover to see other rain measurements)
** Current wind speed in m/s (hover to see current wind gust speed)